Thunder radar more information blitzortung!


Radar de pluja more information rain snow radar


Visita la nostra xarxa de llocs de meteo:

Template documentation
and downloads

And another site



No particular awareness of the weather is required.    There are no Weather-warnings

Pagina Historial Weather Underground text

Diari Resum Juliol 31, 2017 Unitats:  Tant    Imperial   Mètric
« Previous Dia
SegĂźent Dia »
Diari Setmana Mensual Anual Personalitzada
  Maxima: Minima: Media:
Temperatura: 89.8 °F /  32.1 °C 71.1 °F /  21.7 °C 82.8 °F /  28.2 °C
Punt de rosada: 68.9 °F /  20.5 °C 61.2 °F /  16.2 °C 65.3 °F /  18.5 °C
Humitat: 76 % 43 % 57 %
Wind Speed: 15 mph /  24.1 km/h - 7 mph /  11.3 km/h
RĂ fegues de vent: 15 mph /  24.1 km/h - -
Vent:- - East
Pression baro: 29.8 in /  1010.0 hPa 29.7 in /  1007.0 hPa -
Precipitacions: 0 in /  0.0 mm    
Historical Graphs
 
 
Dades de taula per Juliol 31, 2017
Temps Temperatura Punt de rosada Pression baro Vent Wind Speed RĂ fegues de vent Humitat Rainfall Rate (Hourly)
00:00 72.5 °F /  22.5 °C 62.6 °F /  17.0 °C 29.8 in /  1010.0 hPa NE 3 mph /  4.8 km/h 4 mph /  6.4 km/h 71 % 0 in /  0.0 mm
00:01 75.6 °F /  24.2 °C 65.8 °F /  18.8 °C 29.8 in /  1010.0 hPa SW 1.2 mph /  1.9 km/h 1.2 mph /  1.9 km/h 72 % 0 in /  0.0 mm
00:06 75.6 °F /  24.2 °C 66.4 °F /  19.1 °C 29.8 in /  1010.0 hPa Calm     73 % 0 in /  0.0 mm
00:10 72.3 °F /  22.4 °C 62.4 °F /  16.9 °C 29.8 in /  1010.0 hPa NE 2 mph /  3.2 km/h 3 mph /  4.8 km/h 71 % 0 in /  0.0 mm
00:11 75.6 °F /  24.2 °C 66.4 °F /  19.1 °C 29.8 in /  1010.0 hPa ENE 2 mph /  3.2 km/h 2 mph /  3.2 km/h 73 % 0 in /  0.0 mm
00:20 72.3 °F /  22.4 °C 62.4 °F /  16.9 °C 29.8 in /  1010.0 hPa NNE 2 mph /  3.2 km/h 4 mph /  6.4 km/h 71 % 0 in /  0.0 mm
00:30 72.3 °F /  22.4 °C 62.4 °F /  16.9 °C 29.8 in /  1010.0 hPa NNE 3 mph /  4.8 km/h 4 mph /  6.4 km/h 71 % 0 in /  0.0 mm
00:40 72.3 °F /  22.4 °C 62.4 °F /  16.9 °C 29.8 in /  1010.0 hPa NNE 3 mph /  4.8 km/h 4 mph /  6.4 km/h 71 % 0 in /  0.0 mm
00:50 72.3 °F /  22.4 °C 62.4 °F /  16.9 °C 29.8 in /  1010.0 hPa NNE 3 mph /  4.8 km/h 4 mph /  6.4 km/h 71 % 0 in /  0.0 mm
01:00 72.1 °F /  22.3 °C 62.6 °F /  17.0 °C 29.8 in /  1010.0 hPa NE 3 mph /  4.8 km/h 3 mph /  4.8 km/h 72 % 0 in /  0.0 mm
01:10 72.1 °F /  22.3 °C 62.6 °F /  17.0 °C 29.8 in /  1010.0 hPa NE 3 mph /  4.8 km/h 4 mph /  6.4 km/h 72 % 0 in /  0.0 mm
01:20 72 °F /  22.2 °C 62.1 °F /  16.7 °C 29.8 in /  1010.0 hPa NE 3 mph /  4.8 km/h 3 mph /  4.8 km/h 71 % 0 in /  0.0 mm
01:30 72 °F /  22.2 °C 62.4 °F /  16.9 °C 29.8 in /  1010.0 hPa NE 3 mph /  4.8 km/h 4 mph /  6.4 km/h 72 % 0 in /  0.0 mm
01:40 71.8 °F /  22.1 °C 62.2 °F /  16.8 °C 29.8 in /  1010.0 hPa NE 3 mph /  4.8 km/h 4 mph /  6.4 km/h 72 % 0 in /  0.0 mm
01:50 71.6 °F /  22.0 °C 62.1 °F /  16.7 °C 29.8 in /  1010.0 hPa NNE 3 mph /  4.8 km/h 4 mph /  6.4 km/h 72 % 0 in /  0.0 mm
02:00 71.2 °F /  21.8 °C 62.1 °F /  16.7 °C 29.8 in /  1010.0 hPa NNE 2 mph /  3.2 km/h 3 mph /  4.8 km/h 73 % 0 in /  0.0 mm
02:10 71.1 °F /  21.7 °C 61.5 °F /  16.4 °C 29.8 in /  1010.0 hPa NNE 2 mph /  3.2 km/h 3 mph /  4.8 km/h 72 % 0 in /  0.0 mm
02:20 71.1 °F /  21.7 °C 61.2 °F /  16.2 °C 29.8 in /  1010.0 hPa NNE 1 mph /  1.6 km/h 3 mph /  4.8 km/h 71 % 0 in /  0.0 mm
02:30 71.4 °F /  21.9 °C 61.5 °F /  16.4 °C 29.8 in /  1010.0 hPa NNE 1 mph /  1.6 km/h 3 mph /  4.8 km/h 71 % 0 in /  0.0 mm
02:40 72.1 °F /  22.3 °C 61.3 °F /  16.3 °C 29.8 in /  1010.0 hPa NNE 2 mph /  3.2 km/h 3 mph /  4.8 km/h 69 % 0 in /  0.0 mm
02:50 72.7 °F /  22.6 °C 61.9 °F /  16.6 °C 29.8 in /  1009.0 hPa NNE 2 mph /  3.2 km/h 3 mph /  4.8 km/h 69 % 0 in /  0.0 mm
03:00 73.2 °F /  22.9 °C 62.1 °F /  16.7 °C 29.8 in /  1009.0 hPa NE 2 mph /  3.2 km/h 3 mph /  4.8 km/h 68 % 0 in /  0.0 mm
03:10 73.8 °F /  23.2 °C 63 °F /  17.2 °C 29.8 in /  1009.0 hPa ENE 3 mph /  4.8 km/h 3 mph /  4.8 km/h 69 % 0 in /  0.0 mm
03:20 74.3 °F /  23.5 °C 63.5 °F /  17.5 °C 29.8 in /  1010.0 hPa ENE 3 mph /  4.8 km/h 3 mph /  4.8 km/h 69 % 0 in /  0.0 mm
03:30 74.7 °F /  23.7 °C 63.9 °F /  17.7 °C 29.8 in /  1010.0 hPa ENE 3 mph /  4.8 km/h 4 mph /  6.4 km/h 69 % 0 in /  0.0 mm
03:40 75 °F /  23.9 °C 64.2 °F /  17.9 °C 29.8 in /  1009.0 hPa East 2 mph /  3.2 km/h 3 mph /  4.8 km/h 69 % 0 in /  0.0 mm
03:50 75.9 °F /  24.4 °C 64.6 °F /  18.1 °C 29.8 in /  1010.0 hPa ENE 3 mph /  4.8 km/h 4 mph /  6.4 km/h 68 % 0 in /  0.0 mm
04:00 75.9 °F /  24.4 °C 64.6 °F /  18.1 °C 29.8 in /  1010.0 hPa ENE 3 mph /  4.8 km/h 4 mph /  6.4 km/h 68 % 0 in /  0.0 mm
04:10 76.5 °F /  24.7 °C 64.8 °F /  18.2 °C 29.8 in /  1009.0 hPa ENE 3 mph /  4.8 km/h 5 mph /  8.0 km/h 67 % 0 in /  0.0 mm
04:20 77.2 °F /  25.1 °C 64.9 °F /  18.3 °C 29.8 in /  1010.0 hPa ENE 3 mph /  4.8 km/h 5 mph /  8.0 km/h 66 % 0 in /  0.0 mm
04:30 77.5 °F /  25.3 °C 65.3 °F /  18.5 °C 29.8 in /  1010.0 hPa East 3 mph /  4.8 km/h 5 mph /  8.0 km/h 66 % 0 in /  0.0 mm
04:40 77.7 °F /  25.4 °C 64.9 °F /  18.3 °C 29.8 in /  1010.0 hPa ESE 5 mph /  8.0 km/h 5 mph /  8.0 km/h 65 % 0 in /  0.0 mm
04:50 79.3 °F /  26.3 °C 66 °F /  18.9 °C 29.8 in /  1010.0 hPa ESE 2 mph /  3.2 km/h 5 mph /  8.0 km/h 64 % 0 in /  0.0 mm
05:00 79.7 °F /  26.5 °C 65.5 °F /  18.6 °C 29.8 in /  1010.0 hPa East 6 mph /  9.7 km/h 6 mph /  9.7 km/h 62 % 0 in /  0.0 mm
05:10 80.2 °F /  26.8 °C 65.1 °F /  18.4 °C 29.8 in /  1010.0 hPa ENE 5 mph /  8.0 km/h 6 mph /  9.7 km/h 60 % 0 in /  0.0 mm
05:20 80.6 °F /  27.0 °C 64.9 °F /  18.3 °C 29.8 in /  1010.0 hPa East 3 mph /  4.8 km/h 4 mph /  6.4 km/h 59 % 0 in /  0.0 mm
05:30 80.6 °F /  27.0 °C 64.6 °F /  18.1 °C 29.8 in /  1010.0 hPa East 5 mph /  8.0 km/h 6 mph /  9.7 km/h 58 % 0 in /  0.0 mm
05:40 81.7 °F /  27.6 °C 64.9 °F /  18.3 °C 29.8 in /  1010.0 hPa East 7 mph /  11.3 km/h 12 mph /  19.3 km/h 57 % 0 in /  0.0 mm
05:50 81.9 °F /  27.7 °C 64 °F /  17.8 °C 29.8 in /  1010.0 hPa East 3 mph /  4.8 km/h 8 mph /  12.9 km/h 55 % 0 in /  0.0 mm
06:00 82 °F /  27.8 °C 63.1 °F /  17.3 °C 29.8 in /  1010.0 hPa East 5 mph /  8.0 km/h 10 mph /  16.1 km/h 53 % 0 in /  0.0 mm
11:03 82.8 °F /  28.2 °C 63.3 °F /  17.4 °C 29.8 in /  1010.0 hPa ENE 10 mph /  16.1 km/h 10 mph /  16.1 km/h 52 % 0 in /  0.0 mm
11:08 82.9 °F /  28.3 °C 63.5 °F /  17.5 °C 29.8 in /  1010.0 hPa ENE 8.1 mph /  13.0 km/h 8.1 mph /  13.0 km/h 52 % 0 in /  0.0 mm
11:13 83.5 °F /  28.6 °C 63.3 °F /  17.4 °C 29.8 in /  1010.0 hPa ESE 6 mph /  9.7 km/h 6 mph /  9.7 km/h 51 % 0 in /  0.0 mm
11:18 83.8 °F /  28.8 °C 63.9 °F /  17.7 °C 29.8 in /  1009.0 hPa NNW 9.4 mph /  15.1 km/h 9.4 mph /  15.1 km/h 51 % 0 in /  0.0 mm
11:23 84.2 °F /  29.0 °C 63.5 °F /  17.5 °C 29.8 in /  1009.0 hPa ESE 9.2 mph /  14.8 km/h 9.2 mph /  14.8 km/h 50 % 0 in /  0.0 mm
11:28 84.4 °F /  29.1 °C 63.7 °F /  17.6 °C 29.8 in /  1009.0 hPa North 9.2 mph /  14.8 km/h 9.2 mph /  14.8 km/h 50 % 0 in /  0.0 mm
11:33 84.9 °F /  29.4 °C 64.2 °F /  17.9 °C 29.8 in /  1010.0 hPa ENE 8.1 mph /  13.0 km/h 8.1 mph /  13.0 km/h 50 % 0 in /  0.0 mm
11:38 85.6 °F /  29.8 °C 64.9 °F /  18.3 °C 29.8 in /  1010.0 hPa NNE 5.4 mph /  8.7 km/h 5.4 mph /  8.7 km/h 50 % 0 in /  0.0 mm
11:43 85.8 °F /  29.9 °C 64.6 °F /  18.1 °C 29.8 in /  1010.0 hPa East 7.1 mph /  11.4 km/h 7.1 mph /  11.4 km/h 49 % 0 in /  0.0 mm
11:48 85.6 °F /  29.8 °C 64.9 °F /  18.3 °C 29.8 in /  1010.0 hPa ENE 9.4 mph /  15.1 km/h 9.4 mph /  15.1 km/h 50 % 0 in /  0.0 mm
11:53 85.3 °F /  29.6 °C 64.6 °F /  18.1 °C 29.8 in /  1010.0 hPa ESE 8.1 mph /  13.0 km/h 8.1 mph /  13.0 km/h 50 % 0 in /  0.0 mm
11:58 85.3 °F /  29.6 °C 64 °F /  17.8 °C 29.8 in /  1010.0 hPa ESE 8.1 mph /  13.0 km/h 8.1 mph /  13.0 km/h 49 % 0 in /  0.0 mm
12:03 86.5 °F /  30.3 °C 65.1 °F /  18.4 °C 29.8 in /  1010.0 hPa SE 5.8 mph /  9.3 km/h 5.8 mph /  9.3 km/h 49 % 0 in /  0.0 mm
12:08 86.7 °F /  30.4 °C 64 °F /  17.8 °C 29.8 in /  1010.0 hPa ENE 8.7 mph /  14.0 km/h 8.7 mph /  14.0 km/h 47 % 0 in /  0.0 mm
12:13 86.2 °F /  30.1 °C 63 °F /  17.2 °C 29.8 in /  1010.0 hPa ENE 6.9 mph /  11.1 km/h 6.9 mph /  11.1 km/h 46 % 0 in /  0.0 mm
12:18 86.4 °F /  30.2 °C 63.1 °F /  17.3 °C 29.8 in /  1009.0 hPa ESE 6.9 mph /  11.1 km/h 6.9 mph /  11.1 km/h 46 % 0 in /  0.0 mm
12:23 86.7 °F /  30.4 °C 63.5 °F /  17.5 °C 29.8 in /  1009.0 hPa East 8.1 mph /  13.0 km/h 8.1 mph /  13.0 km/h 46 % 0 in /  0.0 mm
12:28 87.3 °F /  30.7 °C 63.3 °F /  17.4 °C 29.8 in /  1009.0 hPa ENE 13.8 mph /  22.2 km/h 13.8 mph /  22.2 km/h 45 % 0 in /  0.0 mm
12:33 87.1 °F /  30.6 °C 63.9 °F /  17.7 °C 29.8 in /  1009.0 hPa ENE 8.1 mph /  13.0 km/h 8.1 mph /  13.0 km/h 46 % 0 in /  0.0 mm
12:38 87.3 °F /  30.7 °C 64 °F /  17.8 °C 29.8 in /  1009.0 hPa ESE 8.1 mph /  13.0 km/h 8.1 mph /  13.0 km/h 46 % 0 in /  0.0 mm
12:43 87.3 °F /  30.7 °C 64 °F /  17.8 °C 29.8 in /  1009.0 hPa SE 8.1 mph /  13.0 km/h 8.1 mph /  13.0 km/h 46 % 0 in /  0.0 mm
12:48 87.3 °F /  30.7 °C 64 °F /  17.8 °C 29.8 in /  1009.0 hPa SW 8.1 mph /  13.0 km/h 8.1 mph /  13.0 km/h 46 % 0 in /  0.0 mm
12:53 87.4 °F /  30.8 °C 63.5 °F /  17.5 °C 29.8 in /  1009.0 hPa ESE 13.8 mph /  22.2 km/h 13.8 mph /  22.2 km/h 45 % 0 in /  0.0 mm
12:58 88 °F /  31.1 °C 64 °F /  17.8 °C 29.8 in /  1009.0 hPa NE 5.8 mph /  9.3 km/h 5.8 mph /  9.3 km/h 45 % 0 in /  0.0 mm
13:03 87.8 °F /  31.0 °C 63.9 °F /  17.7 °C 29.8 in /  1008.0 hPa NNE 5.8 mph /  9.3 km/h 6 mph /  9.7 km/h 45 % 0 in /  0.0 mm
13:08 87.1 °F /  30.6 °C 63.1 °F /  17.3 °C 29.8 in /  1008.0 hPa East 11.5 mph /  18.5 km/h 11.5 mph /  18.5 km/h 45 % 0 in /  0.0 mm
13:13 88.3 °F /  31.3 °C 64.2 °F /  17.9 °C 29.8 in /  1008.0 hPa ESE 6 mph /  9.7 km/h 6 mph /  9.7 km/h 45 % 0 in /  0.0 mm
13:18 88.7 °F /  31.5 °C 64.6 °F /  18.1 °C 29.8 in /  1009.0 hPa ESE 12.7 mph /  20.4 km/h 12.7 mph /  20.4 km/h 45 % 0 in /  0.0 mm
13:23 88 °F /  31.1 °C 63.3 °F /  17.4 °C 29.8 in /  1009.0 hPa ESE 8.1 mph /  13.0 km/h 8.1 mph /  13.0 km/h 44 % 0 in /  0.0 mm
13:28 88.2 °F /  31.2 °C 63.5 °F /  17.5 °C 29.8 in /  1009.0 hPa ENE 10.5 mph /  16.9 km/h 10.5 mph /  16.9 km/h 44 % 0 in /  0.0 mm
13:33 88.9 °F /  31.6 °C 64 °F /  17.8 °C 29.8 in /  1008.0 hPa SE 8.1 mph /  13.0 km/h 8.1 mph /  13.0 km/h 44 % 0 in /  0.0 mm
13:38 89.2 °F /  31.8 °C 64.6 °F /  18.1 °C 29.8 in /  1008.0 hPa SE 10.4 mph /  16.7 km/h 10.4 mph /  16.7 km/h 44 % 0 in /  0.0 mm
13:43 89.1 °F /  31.7 °C 64.2 °F /  17.9 °C 29.8 in /  1008.0 hPa East 4.9 mph /  7.9 km/h 4.9 mph /  7.9 km/h 44 % 0 in /  0.0 mm
13:48 89.4 °F /  31.9 °C 64.6 °F /  18.1 °C 29.8 in /  1008.0 hPa East 8.1 mph /  13.0 km/h 8.1 mph /  13.0 km/h 44 % 0 in /  0.0 mm
13:53 88.9 °F /  31.6 °C 64 °F /  17.8 °C 29.8 in /  1008.0 hPa East 9.2 mph /  14.8 km/h 9.2 mph /  14.8 km/h 44 % 0 in /  0.0 mm
13:58 88.7 °F /  31.5 °C 64 °F /  17.8 °C 29.8 in /  1008.0 hPa ESE 5.8 mph /  9.3 km/h 6.2 mph /  10.0 km/h 44 % 0 in /  0.0 mm
14:03 89.2 °F /  31.8 °C 64.6 °F /  18.1 °C 29.8 in /  1009.0 hPa ESE 9.2 mph /  14.8 km/h 9.2 mph /  14.8 km/h 44 % 0 in /  0.0 mm
14:08 89.4 °F /  31.9 °C 64.6 °F /  18.1 °C 29.8 in /  1009.0 hPa ESE 9.2 mph /  14.8 km/h 9.2 mph /  14.8 km/h 44 % 0 in /  0.0 mm
14:13 89.4 °F /  31.9 °C 64.6 °F /  18.1 °C 29.8 in /  1009.0 hPa SE 8.1 mph /  13.0 km/h 8.1 mph /  13.0 km/h 44 % 0 in /  0.0 mm
14:18 89.4 °F /  31.9 °C 64 °F /  17.8 °C 29.8 in /  1009.0 hPa East 9.2 mph /  14.8 km/h 9.2 mph /  14.8 km/h 43 % 0 in /  0.0 mm
14:23 89.8 °F /  32.1 °C 64.2 °F /  17.9 °C 29.8 in /  1009.0 hPa East 9.2 mph /  14.8 km/h 9.2 mph /  14.8 km/h 43 % 0 in /  0.0 mm
14:28 89.1 °F /  31.7 °C 64.9 °F /  18.3 °C 29.8 in /  1009.0 hPa ESE 10.4 mph /  16.7 km/h 10.4 mph /  16.7 km/h 45 % 0 in /  0.0 mm
14:33 89.2 °F /  31.8 °C 65.1 °F /  18.4 °C 29.8 in /  1010.0 hPa ESE 10.4 mph /  16.7 km/h 10.4 mph /  16.7 km/h 45 % 0 in /  0.0 mm
14:38 89.1 °F /  31.7 °C 64.9 °F /  18.3 °C 29.8 in /  1010.0 hPa ENE 9.2 mph /  14.8 km/h 9.2 mph /  14.8 km/h 45 % 0 in /  0.0 mm
14:43 89.1 °F /  31.7 °C 64.9 °F /  18.3 °C 29.8 in /  1010.0 hPa ENE 12.7 mph /  20.4 km/h 12.7 mph /  20.4 km/h 45 % 0 in /  0.0 mm
14:48 89.1 °F /  31.7 °C 64.9 °F /  18.3 °C 29.8 in /  1009.0 hPa ESE 12.1 mph /  19.5 km/h 12.1 mph /  19.5 km/h 45 % 0 in /  0.0 mm
14:53 88.5 °F /  31.4 °C 65.1 °F /  18.4 °C 29.8 in /  1009.0 hPa ESE 13.8 mph /  22.2 km/h 13.8 mph /  22.2 km/h 46 % 0 in /  0.0 mm
14:58 88.3 °F /  31.3 °C 64.9 °F /  18.3 °C 29.8 in /  1009.0 hPa ESE 10.4 mph /  16.7 km/h 10.4 mph /  16.7 km/h 46 % 0 in /  0.0 mm
15:03 88.5 °F /  31.4 °C 65.7 °F /  18.7 °C 29.8 in /  1009.0 hPa ESE 13.8 mph /  22.2 km/h 13.8 mph /  22.2 km/h 47 % 0 in /  0.0 mm
15:08 88.2 °F /  31.2 °C 65.5 °F /  18.6 °C 29.8 in /  1009.0 hPa ESE 11.5 mph /  18.5 km/h 11.5 mph /  18.5 km/h 47 % 0 in /  0.0 mm
15:13 87.8 °F /  31.0 °C 65.1 °F /  18.4 °C 29.8 in /  1009.0 hPa ESE 15 mph /  24.1 km/h 15 mph /  24.1 km/h 47 % 0 in /  0.0 mm
15:18 88.2 °F /  31.2 °C 65.5 °F /  18.6 °C 29.8 in /  1009.0 hPa SE 8.7 mph /  14.0 km/h 8.7 mph /  14.0 km/h 47 % 0 in /  0.0 mm
15:23 88.3 °F /  31.3 °C 65.7 °F /  18.7 °C 29.8 in /  1009.0 hPa SE 10.4 mph /  16.7 km/h 10.4 mph /  16.7 km/h 47 % 0 in /  0.0 mm
15:28 88 °F /  31.1 °C 65.8 °F /  18.8 °C 29.8 in /  1009.0 hPa ESE 10.2 mph /  16.4 km/h 10.2 mph /  16.4 km/h 48 % 0 in /  0.0 mm
15:33 88.2 °F /  31.2 °C 66 °F /  18.9 °C 29.8 in /  1009.0 hPa ESE 10.4 mph /  16.7 km/h 10.4 mph /  16.7 km/h 48 % 0 in /  0.0 mm
15:38 88.5 °F /  31.4 °C 66.9 °F /  19.4 °C 29.8 in /  1009.0 hPa ESE 4.6 mph /  7.4 km/h 4.7 mph /  7.6 km/h 49 % 0 in /  0.0 mm
15:43 88.5 °F /  31.4 °C 66.4 °F /  19.1 °C 29.8 in /  1009.0 hPa ESE 10.4 mph /  16.7 km/h 10.4 mph /  16.7 km/h 48 % 0 in /  0.0 mm
15:48 88.3 °F /  31.3 °C 66.2 °F /  19.0 °C 29.8 in /  1008.0 hPa ESE 8.1 mph /  13.0 km/h 8.1 mph /  13.0 km/h 48 % 0 in /  0.0 mm
15:53 88.7 °F /  31.5 °C 66.6 °F /  19.2 °C 29.8 in /  1008.0 hPa ENE 11.5 mph /  18.5 km/h 11.5 mph /  18.5 km/h 48 % 0 in /  0.0 mm
15:58 88.9 °F /  31.6 °C 66.7 °F /  19.3 °C 29.8 in /  1008.0 hPa NE 8.1 mph /  13.0 km/h 8.1 mph /  13.0 km/h 48 % 0 in /  0.0 mm
16:03 88.9 °F /  31.6 °C 66.7 °F /  19.3 °C 29.8 in /  1008.0 hPa ESE 9.2 mph /  14.8 km/h 9.2 mph /  14.8 km/h 48 % 0 in /  0.0 mm
16:08 88.5 °F /  31.4 °C 65.7 °F /  18.7 °C 29.8 in /  1008.0 hPa SE 8.1 mph /  13.0 km/h 8.1 mph /  13.0 km/h 47 % 0 in /  0.0 mm
16:13 88.7 °F /  31.5 °C 66.6 °F /  19.2 °C 29.8 in /  1008.0 hPa ESE 8.1 mph /  13.0 km/h 8.1 mph /  13.0 km/h 48 % 0 in /  0.0 mm
16:18 88.5 °F /  31.4 °C 66.4 °F /  19.1 °C 29.8 in /  1008.0 hPa ESE 6.9 mph /  11.1 km/h 6.9 mph /  11.1 km/h 48 % 0 in /  0.0 mm
16:23 89.2 °F /  31.8 °C 66.4 °F /  19.1 °C 29.8 in /  1008.0 hPa ESE 6.9 mph /  11.1 km/h 6.9 mph /  11.1 km/h 47 % 0 in /  0.0 mm
16:24 89.2 °F /  31.8 °C 66.4 °F /  19.1 °C 29.8 in /  1008.0 hPa ESE 6.9 mph /  11.1 km/h 6.9 mph /  11.1 km/h 47 % 0 in /  0.0 mm
16:29 88.9 °F /  31.6 °C 66 °F /  18.9 °C 29.8 in /  1008.0 hPa ENE 10.4 mph /  16.7 km/h 10.4 mph /  16.7 km/h 47 % 0 in /  0.0 mm
16:34 89.2 °F /  31.8 °C 65.8 °F /  18.8 °C 29.8 in /  1008.0 hPa ESE 10.4 mph /  16.7 km/h 10.4 mph /  16.7 km/h 46 % 0 in /  0.0 mm
16:39 89.2 °F /  31.8 °C 65.8 °F /  18.8 °C 29.8 in /  1008.0 hPa ESE 8.5 mph /  13.7 km/h 8.5 mph /  13.7 km/h 46 % 0 in /  0.0 mm
16:44 89.8 °F /  32.1 °C 66.2 °F /  19.0 °C 29.8 in /  1008.0 hPa ENE 8.1 mph /  13.0 km/h 8.1 mph /  13.0 km/h 46 % 0 in /  0.0 mm
16:49 89.4 °F /  31.9 °C 66.6 °F /  19.2 °C 29.8 in /  1008.0 hPa SE 9.7 mph /  15.6 km/h 9.7 mph /  15.6 km/h 47 % 0 in /  0.0 mm
16:54 88.9 °F /  31.6 °C 66 °F /  18.9 °C 29.8 in /  1008.0 hPa ENE 8.1 mph /  13.0 km/h 8.1 mph /  13.0 km/h 47 % 0 in /  0.0 mm
16:59 88.5 °F /  31.4 °C 65.7 °F /  18.7 °C 29.8 in /  1008.0 hPa ESE 8.1 mph /  13.0 km/h 8.1 mph /  13.0 km/h 47 % 0 in /  0.0 mm
17:04 88.5 °F /  31.4 °C 65.7 °F /  18.7 °C 29.8 in /  1008.0 hPa ESE 8.1 mph /  13.0 km/h 8.1 mph /  13.0 km/h 47 % 0 in /  0.0 mm
17:05 88.5 °F /  31.4 °C 65.7 °F /  18.7 °C 29.8 in /  1008.0 hPa SSE 11.5 mph /  18.5 km/h 11.5 mph /  18.5 km/h 47 % 0 in /  0.0 mm
17:10 88.7 °F /  31.5 °C 65.8 °F /  18.8 °C 29.8 in /  1008.0 hPa ESE 9.2 mph /  14.8 km/h 9.2 mph /  14.8 km/h 47 % 0 in /  0.0 mm
17:15 88.5 °F /  31.4 °C 65.7 °F /  18.7 °C 29.8 in /  1008.0 hPa SE 12.8 mph /  20.6 km/h 12.8 mph /  20.6 km/h 47 % 0 in /  0.0 mm
17:20 87.8 °F /  31.0 °C 65.1 °F /  18.4 °C 29.8 in /  1008.0 hPa East 8.1 mph /  13.0 km/h 8.1 mph /  13.0 km/h 47 % 0 in /  0.0 mm
17:25 88 °F /  31.1 °C 65.1 °F /  18.4 °C 29.8 in /  1008.0 hPa ESE 10.4 mph /  16.7 km/h 10.4 mph /  16.7 km/h 47 % 0 in /  0.0 mm
17:30 88.2 °F /  31.2 °C 66 °F /  18.9 °C 29.8 in /  1008.0 hPa ESE 5.8 mph /  9.3 km/h 5.8 mph /  9.3 km/h 48 % 0 in /  0.0 mm
17:35 87.8 °F /  31.0 °C 65.1 °F /  18.4 °C 29.8 in /  1008.0 hPa East 6.9 mph /  11.1 km/h 6.9 mph /  11.1 km/h 47 % 0 in /  0.0 mm
17:40 87.4 °F /  30.8 °C 65.3 °F /  18.5 °C 29.8 in /  1008.0 hPa ESE 10.4 mph /  16.7 km/h 10.4 mph /  16.7 km/h 48 % 0 in /  0.0 mm
17:45 86.5 °F /  30.3 °C 65.1 °F /  18.4 °C 29.8 in /  1008.0 hPa East 9 mph /  14.5 km/h 13 mph /  20.9 km/h 49 % 0 in /  0.0 mm
17:50 86.5 °F /  30.3 °C 65.7 °F /  18.7 °C 29.8 in /  1008.0 hPa ESE 3 mph /  4.8 km/h 10 mph /  16.1 km/h 50 % 0 in /  0.0 mm
17:55 86.4 °F /  30.2 °C 64.9 °F /  18.3 °C 29.8 in /  1008.0 hPa ESE 7 mph /  11.3 km/h 11 mph /  17.7 km/h 49 % 0 in /  0.0 mm
18:00 85.8 °F /  29.9 °C 65.7 °F /  18.7 °C 29.8 in /  1008.0 hPa ESE 8.1 mph /  13.0 km/h 8.1 mph /  13.0 km/h 51 % 0 in /  0.0 mm
18:05 85.5 °F /  29.7 °C 65.3 °F /  18.5 °C 29.8 in /  1008.0 hPa ESE 10.2 mph /  16.4 km/h 10.2 mph /  16.4 km/h 51 % 0 in /  0.0 mm
18:10 85.3 °F /  29.6 °C 66.2 °F /  19.0 °C 29.8 in /  1008.0 hPa ESE 5.8 mph /  9.3 km/h 5.8 mph /  9.3 km/h 53 % 0 in /  0.0 mm
18:15 85.3 °F /  29.6 °C 66.2 °F /  19.0 °C 29.8 in /  1008.0 hPa ENE 10.4 mph /  16.7 km/h 10.4 mph /  16.7 km/h 53 % 0 in /  0.0 mm
18:20 84.7 °F /  29.3 °C 66.4 °F /  19.1 °C 29.8 in /  1008.0 hPa East 11.5 mph /  18.5 km/h 11.5 mph /  18.5 km/h 54 % 0 in /  0.0 mm
18:25 84.6 °F /  29.2 °C 66 °F /  18.9 °C 29.8 in /  1008.0 hPa East 6 mph /  9.7 km/h 10 mph /  16.1 km/h 54 % 0 in /  0.0 mm
18:30 84.2 °F /  29.0 °C 66.7 °F /  19.3 °C 29.8 in /  1008.0 hPa NNE 8.1 mph /  13.0 km/h 8.1 mph /  13.0 km/h 56 % 0 in /  0.0 mm
18:35 84.4 °F /  29.1 °C 66.9 °F /  19.4 °C 29.8 in /  1008.0 hPa NE 6.9 mph /  11.1 km/h 6.9 mph /  11.1 km/h 56 % 0 in /  0.0 mm
18:40 83.5 °F /  28.6 °C 67.1 °F /  19.5 °C 29.8 in /  1008.0 hPa East 10.4 mph /  16.7 km/h 10.4 mph /  16.7 km/h 58 % 0 in /  0.0 mm
18:45 83.3 °F /  28.5 °C 67.5 °F /  19.7 °C 29.8 in /  1008.0 hPa East 8.1 mph /  13.0 km/h 8.1 mph /  13.0 km/h 59 % 0 in /  0.0 mm
18:50 83.1 °F /  28.4 °C 66.7 °F /  19.3 °C 29.8 in /  1008.0 hPa NE 8.1 mph /  13.0 km/h 8.1 mph /  13.0 km/h 58 % 0 in /  0.0 mm
18:55 82.8 °F /  28.2 °C 66.9 °F /  19.4 °C 29.8 in /  1008.0 hPa East 8.1 mph /  13.0 km/h 8.1 mph /  13.0 km/h 59 % 0 in /  0.0 mm
19:00 82.4 °F /  28.0 °C 67.1 °F /  19.5 °C 29.8 in /  1008.0 hPa ESE 7.1 mph /  11.4 km/h 7.1 mph /  11.4 km/h 60 % 0 in /  0.0 mm
19:05 82.4 °F /  28.0 °C 67.1 °F /  19.5 °C 29.8 in /  1008.0 hPa ESE 8.7 mph /  14.0 km/h 8.7 mph /  14.0 km/h 60 % 0 in /  0.0 mm
19:10 82.6 °F /  28.1 °C 66.7 °F /  19.3 °C 29.8 in /  1008.0 hPa ESE 8.1 mph /  13.0 km/h 8.1 mph /  13.0 km/h 59 % 0 in /  0.0 mm
19:15 82.8 °F /  28.2 °C 66.9 °F /  19.4 °C 29.8 in /  1008.0 hPa ENE 8.1 mph /  13.0 km/h 8.1 mph /  13.0 km/h 59 % 0 in /  0.0 mm
19:20 82.4 °F /  28.0 °C 67.1 °F /  19.5 °C 29.7 in /  1007.0 hPa ENE 10.4 mph /  16.7 km/h 10.4 mph /  16.7 km/h 60 % 0 in /  0.0 mm
19:25 82.6 °F /  28.1 °C 67.3 °F /  19.6 °C 29.7 in /  1007.0 hPa East 5.8 mph /  9.3 km/h 5.8 mph /  9.3 km/h 60 % 0 in /  0.0 mm
19:30 82.2 °F /  27.9 °C 66.9 °F /  19.4 °C 29.7 in /  1007.0 hPa ENE 8.1 mph /  13.0 km/h 8.1 mph /  13.0 km/h 60 % 0 in /  0.0 mm
19:35 81.9 °F /  27.7 °C 66.6 °F /  19.2 °C 29.7 in /  1007.0 hPa ESE 8.1 mph /  13.0 km/h 8.1 mph /  13.0 km/h 60 % 0 in /  0.0 mm
19:40 81.9 °F /  27.7 °C 67.1 °F /  19.5 °C 29.7 in /  1007.0 hPa ESE 6.9 mph /  11.1 km/h 6.9 mph /  11.1 km/h 61 % 0 in /  0.0 mm
19:45 81.7 °F /  27.6 °C 67.5 °F /  19.7 °C 29.7 in /  1007.0 hPa East 10.4 mph /  16.7 km/h 10.4 mph /  16.7 km/h 62 % 0 in /  0.0 mm
19:50 81.5 °F /  27.5 °C 67.3 °F /  19.6 °C 29.8 in /  1008.0 hPa ESE 6.9 mph /  11.1 km/h 6.9 mph /  11.1 km/h 62 % 0 in /  0.0 mm
19:55 81.5 °F /  27.5 °C 67.6 °F /  19.8 °C 29.8 in /  1008.0 hPa East 5.8 mph /  9.3 km/h 5.8 mph /  9.3 km/h 63 % 0 in /  0.0 mm
20:00 81.3 °F /  27.4 °C 67.5 °F /  19.7 °C 29.8 in /  1008.0 hPa ESE 8.1 mph /  13.0 km/h 8.1 mph /  13.0 km/h 63 % 0 in /  0.0 mm
20:05 81.1 °F /  27.3 °C 67.3 °F /  19.6 °C 29.8 in /  1008.0 hPa ESE 8.1 mph /  13.0 km/h 8.1 mph /  13.0 km/h 63 % 0 in /  0.0 mm
20:10 81 °F /  27.2 °C 67.3 °F /  19.6 °C 29.8 in /  1008.0 hPa East 9.2 mph /  14.8 km/h 9.2 mph /  14.8 km/h 63 % 0 in /  0.0 mm
20:15 80.8 °F /  27.1 °C 66.9 °F /  19.4 °C 29.8 in /  1008.0 hPa ESE 5.4 mph /  8.7 km/h 5.4 mph /  8.7 km/h 63 % 0 in /  0.0 mm
20:20 80.6 °F /  27.0 °C 67.3 °F /  19.6 °C 29.8 in /  1008.0 hPa ESE 8.1 mph /  13.0 km/h 8.1 mph /  13.0 km/h 64 % 0 in /  0.0 mm
20:25 80.6 °F /  27.0 °C 66.7 °F /  19.3 °C 29.8 in /  1008.0 hPa East 5.8 mph /  9.3 km/h 5.8 mph /  9.3 km/h 63 % 0 in /  0.0 mm
20:26 80.6 °F /  27.0 °C 66.7 °F /  19.3 °C 29.8 in /  1008.0 hPa ENE 5.8 mph /  9.3 km/h 5.8 mph /  9.3 km/h 63 % 0 in /  0.0 mm
20:31 80.4 °F /  26.9 °C 67.6 °F /  19.8 °C 29.8 in /  1008.0 hPa ESE 5.8 mph /  9.3 km/h 5.8 mph /  9.3 km/h 65 % 0 in /  0.0 mm
20:36 80.2 °F /  26.8 °C 67.5 °F /  19.7 °C 29.8 in /  1008.0 hPa East 4.3 mph /  6.9 km/h 4.3 mph /  6.9 km/h 65 % 0 in /  0.0 mm
20:41 80.1 °F /  26.7 °C 67.6 °F /  19.8 °C 29.8 in /  1008.0 hPa ESE 3.5 mph /  5.6 km/h 3.5 mph /  5.6 km/h 66 % 0 in /  0.0 mm
20:46 79.9 °F /  26.6 °C 67.8 °F /  19.9 °C 29.8 in /  1008.0 hPa SE 7.1 mph /  11.4 km/h 7.1 mph /  11.4 km/h 67 % 0 in /  0.0 mm
20:51 79.5 °F /  26.4 °C 67.6 °F /  19.8 °C 29.8 in /  1008.0 hPa SSE 5.6 mph /  9.0 km/h 5.6 mph /  9.0 km/h 67 % 0 in /  0.0 mm
20:56 79.3 °F /  26.3 °C 67.8 °F /  19.9 °C 29.8 in /  1008.0 hPa East 6.2 mph /  10.0 km/h 6.2 mph /  10.0 km/h 68 % 0 in /  0.0 mm
21:01 79.2 °F /  26.2 °C 68.2 °F /  20.1 °C 29.8 in /  1008.0 hPa ESE 4.6 mph /  7.4 km/h 4.6 mph /  7.4 km/h 69 % 0 in /  0.0 mm
21:06 78.8 °F /  26.0 °C 67.8 °F /  19.9 °C 29.8 in /  1008.0 hPa SE 6.9 mph /  11.1 km/h 6.9 mph /  11.1 km/h 69 % 0 in /  0.0 mm
21:11 78.8 °F /  26.0 °C 67.8 °F /  19.9 °C 29.8 in /  1008.0 hPa ESE 6.9 mph /  11.1 km/h 6.9 mph /  11.1 km/h 69 % 0 in /  0.0 mm
21:16 78.6 °F /  25.9 °C 68 °F /  20.0 °C 29.8 in /  1008.0 hPa ENE 6.9 mph /  11.1 km/h 6.9 mph /  11.1 km/h 70 % 0 in /  0.0 mm
21:21 78.4 °F /  25.8 °C 67.5 °F /  19.7 °C 29.8 in /  1008.0 hPa NE 3.5 mph /  5.6 km/h 3.5 mph /  5.6 km/h 69 % 0 in /  0.0 mm
21:26 78.3 °F /  25.7 °C 67.3 °F /  19.6 °C 29.8 in /  1008.0 hPa ENE 4.6 mph /  7.4 km/h 4.6 mph /  7.4 km/h 69 % 0 in /  0.0 mm
21:31 78.3 °F /  25.7 °C 67.3 °F /  19.6 °C 29.8 in /  1008.0 hPa ENE 5.8 mph /  9.3 km/h 5.8 mph /  9.3 km/h 69 % 0 in /  0.0 mm
21:36 78.1 °F /  25.6 °C 67.5 °F /  19.7 °C 29.8 in /  1008.0 hPa ENE 5.8 mph /  9.3 km/h 5.8 mph /  9.3 km/h 70 % 0 in /  0.0 mm
21:41 77.9 °F /  25.5 °C 67.6 °F /  19.8 °C 29.8 in /  1008.0 hPa ESE 5.4 mph /  8.7 km/h 5.4 mph /  8.7 km/h 71 % 0 in /  0.0 mm
21:46 77.9 °F /  25.5 °C 67.6 °F /  19.8 °C 29.8 in /  1008.0 hPa ENE 4.6 mph /  7.4 km/h 4.6 mph /  7.4 km/h 71 % 0 in /  0.0 mm
21:51 77.7 °F /  25.4 °C 68 °F /  20.0 °C 29.8 in /  1008.0 hPa East 5.8 mph /  9.3 km/h 5.8 mph /  9.3 km/h 72 % 0 in /  0.0 mm
21:56 77.5 °F /  25.3 °C 67.8 °F /  19.9 °C 29.8 in /  1008.0 hPa ENE 8.1 mph /  13.0 km/h 8.1 mph /  13.0 km/h 72 % 0 in /  0.0 mm
21:57 77.5 °F /  25.3 °C 68.2 °F /  20.1 °C 29.8 in /  1008.0 hPa ESE 5.8 mph /  9.3 km/h 5.8 mph /  9.3 km/h 73 % 0 in /  0.0 mm
22:02 77.4 °F /  25.2 °C 68 °F /  20.0 °C 29.8 in /  1008.0 hPa ESE 5.8 mph /  9.3 km/h 5.8 mph /  9.3 km/h 73 % 0 in /  0.0 mm
22:07 77.4 °F /  25.2 °C 68.4 °F /  20.2 °C 29.8 in /  1008.0 hPa NNE 5.8 mph /  9.3 km/h 5.8 mph /  9.3 km/h 74 % 0 in /  0.0 mm
22:12 77.2 °F /  25.1 °C 68.2 °F /  20.1 °C 29.8 in /  1008.0 hPa ENE 6.9 mph /  11.1 km/h 6.9 mph /  11.1 km/h 74 % 0 in /  0.0 mm
22:17 77.2 °F /  25.1 °C 68.5 °F /  20.3 °C 29.8 in /  1008.0 hPa ENE 8.1 mph /  13.0 km/h 8.1 mph /  13.0 km/h 75 % 0 in /  0.0 mm
22:22 77 °F /  25.0 °C 68.5 °F /  20.3 °C 29.8 in /  1008.0 hPa ENE 6.9 mph /  11.1 km/h 6.9 mph /  11.1 km/h 75 % 0 in /  0.0 mm
22:27 77 °F /  25.0 °C 68.9 °F /  20.5 °C 29.8 in /  1008.0 hPa East 5.8 mph /  9.3 km/h 5.8 mph /  9.3 km/h 76 % 0 in /  0.0 mm
Meteo Sesrovires
Elogis d' Weather Underground - 3.5 mb

Guio original per  Jim McMurry - jmcmurry@mwt.net Adaptat per a la plantilla per  Wim van der Kuil - Leuven-Template.eu

Trobareu la nostra informacio del temps tambe a:

Weather Underground

AWEKAS